sensor_id;sensor_type;location;lat;lon;timestamp;P1;durP1;ratioP1;P2;durP2;ratioP2
22268;SDS011;11303;50.772;19.670;2023-04-16T00:00:40;28.40;;;20.52;;
22268;SDS011;11303;50.772;19.670;2023-04-16T00:02:42;33.95;;;20.55;;
22268;SDS011;11303;50.772;19.670;2023-04-16T00:04:44;44.72;;;25.08;;
22268;SDS011;11303;50.772;19.670;2023-04-16T00:06:45;37.70;;;25.35;;
22268;SDS011;11303;50.772;19.670;2023-04-16T00:08:47;48.25;;;30.20;;
22268;SDS011;11303;50.772;19.670;2023-04-16T00:10:49;44.95;;;26.83;;
22268;SDS011;11303;50.772;19.670;2023-04-16T00:12:50;42.10;;;23.63;;
22268;SDS011;11303;50.772;19.670;2023-04-16T00:14:52;35.85;;;22.17;;
22268;SDS011;11303;50.772;19.670;2023-04-16T00:16:53;45.83;;;24.70;;
22268;SDS011;11303;50.772;19.670;2023-04-16T00:18:54;40.97;;;24.35;;
22268;SDS011;11303;50.772;19.670;2023-04-16T00:20:56;40.53;;;27.05;;
22268;SDS011;11303;50.772;19.670;2023-04-16T00:22:58;50.63;;;30.27;;
22268;SDS011;11303;50.772;19.670;2023-04-16T00:25:00;45.47;;;28.75;;
22268;SDS011;11303;50.772;19.670;2023-04-16T00:27:01;39.38;;;24.88;;
22268;SDS011;11303;50.772;19.670;2023-04-16T00:29:03;39.78;;;24.67;;
22268;SDS011;11303;50.772;19.670;2023-04-16T00:31:04;39.08;;;24.25;;
22268;SDS011;11303;50.772;19.670;2023-04-16T00:33:05;44.65;;;27.10;;
22268;SDS011;11303;50.772;19.670;2023-04-16T00:35:07;43.63;;;24.08;;
22268;SDS011;11303;50.772;19.670;2023-04-16T00:37:09;43.08;;;23.58;;
22268;SDS011;11303;50.772;19.670;2023-04-16T00:39:10;43.75;;;25.58;;
22268;SDS011;11303;50.772;19.670;2023-04-16T00:41:12;46.58;;;24.73;;
22268;SDS011;11303;50.772;19.670;2023-04-16T00:43:20;45.60;;;27.67;;
22268;SDS011;11303;50.772;19.670;2023-04-16T00:45:23;44.10;;;29.08;;
22268;SDS011;11303;50.772;19.670;2023-04-16T00:47:24;51.97;;;31.08;;
22268;SDS011;11303;50.772;19.670;2023-04-16T00:49:26;51.78;;;29.88;;
22268;SDS011;11303;50.772;19.670;2023-04-16T00:51:27;53.65;;;28.13;;
22268;SDS011;11303;50.772;19.670;2023-04-16T00:53:29;51.35;;;29.38;;
22268;SDS011;11303;50.772;19.670;2023-04-16T00:55:31;51.25;;;29.38;;
22268;SDS011;11303;50.772;19.670;2023-04-16T00:57:32;51.70;;;29.45;;
22268;SDS011;11303;50.772;19.670;2023-04-16T00:59:34;55.30;;;28.27;;
22268;SDS011;11303;50.772;19.670;2023-04-16T01:01:35;50.35;;;29.52;;
22268;SDS011;11303;50.772;19.670;2023-04-16T01:03:44;68.07;;;36.25;;
22268;SDS011;11303;50.772;19.670;2023-04-16T01:05:46;52.35;;;31.63;;
22268;SDS011;11303;50.772;19.670;2023-04-16T01:07:49;48.92;;;29.30;;
22268;SDS011;11303;50.772;19.670;2023-04-16T01:09:51;45.00;;;28.23;;
22268;SDS011;11303;50.772;19.670;2023-04-16T01:11:52;45.67;;;30.27;;
22268;SDS011;11303;50.772;19.670;2023-04-16T01:13:54;42.90;;;26.73;;
22268;SDS011;11303;50.772;19.670;2023-04-16T01:15:55;41.33;;;24.98;;
22268;SDS011;11303;50.772;19.670;2023-04-16T01:17:57;32.92;;;22.05;;
22268;SDS011;11303;50.772;19.670;2023-04-16T01:19:59;29.88;;;19.15;;
22268;SDS011;11303;50.772;19.670;2023-04-16T01:22:01;33.10;;;19.25;;
22268;SDS011;11303;50.772;19.670;2023-04-16T01:24:03;28.25;;;17.33;;
22268;SDS011;11303;50.772;19.670;2023-04-16T01:26:07;27.05;;;17.23;;
22268;SDS011;11303;50.772;19.670;2023-04-16T01:28:08;29.65;;;18.13;;
22268;SDS011;11303;50.772;19.670;2023-04-16T01:30:10;30.02;;;19.77;;
22268;SDS011;11303;50.772;19.670;2023-04-16T01:32:11;24.30;;;15.40;;
22268;SDS011;11303;50.772;19.670;2023-04-16T01:34:13;30.25;;;18.67;;
22268;SDS011;11303;50.772;19.670;2023-04-16T01:36:14;32.58;;;19.35;;
22268;SDS011;11303;50.772;19.670;2023-04-16T01:38:16;33.13;;;19.20;;
22268;SDS011;11303;50.772;19.670;2023-04-16T01:40:17;42.65;;;24.02;;
22268;SDS011;11303;50.772;19.670;2023-04-16T01:42:19;44.88;;;25.38;;
22268;SDS011;11303;50.772;19.670;2023-04-16T01:44:20;38.60;;;23.30;;
22268;SDS011;11303;50.772;19.670;2023-04-16T01:46:26;58.75;;;33.10;;
22268;SDS011;11303;50.772;19.670;2023-04-16T01:48:27;50.22;;;26.63;;
22268;SDS011;11303;50.772;19.670;2023-04-16T01:50:29;43.72;;;26.23;;
22268;SDS011;11303;50.772;19.670;2023-04-16T01:52:30;93.95;;;52.78;;
22268;SDS011;11303;50.772;19.670;2023-04-16T01:54:32;93.60;;;50.97;;
22268;SDS011;11303;50.772;19.670;2023-04-16T01:56:33;67.82;;;40.38;;
22268;SDS011;11303;50.772;19.670;2023-04-16T01:58:35;150.80;;;97.25;;
22268;SDS011;11303;50.772;19.670;2023-04-16T02:00:36;191.65;;;128.18;;
22268;SDS011;11303;50.772;19.670;2023-04-16T02:02:37;130.80;;;85.25;;
22268;SDS011;11303;50.772;19.670;2023-04-16T02:04:40;62.70;;;35.92;;
22268;SDS011;11303;50.772;19.670;2023-04-16T02:06:42;56.92;;;30.98;;
22268;SDS011;11303;50.772;19.670;2023-04-16T02:08:43;42.50;;;23.58;;
22268;SDS011;11303;50.772;19.670;2023-04-16T02:10:45;45.47;;;25.35;;
22268;SDS011;11303;50.772;19.670;2023-04-16T02:12:47;66.63;;;39.55;;
22268;SDS011;11303;50.772;19.670;2023-04-16T02:14:48;72.00;;;46.70;;
22268;SDS011;11303;50.772;19.670;2023-04-16T02:16:50;72.38;;;45.05;;
22268;SDS011;11303;50.772;19.670;2023-04-16T02:18:52;73.63;;;42.58;;
22268;SDS011;11303;50.772;19.670;2023-04-16T02:20:53;79.10;;;44.90;;
22268;SDS011;11303;50.772;19.670;2023-04-16T02:22:57;76.70;;;42.63;;
22268;SDS011;11303;50.772;19.670;2023-04-16T02:24:59;66.32;;;37.50;;
22268;SDS011;11303;50.772;19.670;2023-04-16T02:27:00;66.95;;;37.75;;
22268;SDS011;11303;50.772;19.670;2023-04-16T02:29:02;54.47;;;32.63;;
22268;SDS011;11303;50.772;19.670;2023-04-16T02:31:04;55.88;;;32.72;;
22268;SDS011;11303;50.772;19.670;2023-04-16T02:33:06;55.17;;;30.10;;
22268;SDS011;11303;50.772;19.670;2023-04-16T02:35:07;46.60;;;24.50;;
22268;SDS011;11303;50.772;19.670;2023-04-16T02:37:09;60.45;;;29.05;;
22268;SDS011;11303;50.772;19.670;2023-04-16T02:39:10;56.70;;;32.50;;
22268;SDS011;11303;50.772;19.670;2023-04-16T02:41:12;52.22;;;27.20;;
22268;SDS011;11303;50.772;19.670;2023-04-16T02:43:13;50.40;;;29.38;;
22268;SDS011;11303;50.772;19.670;2023-04-16T02:45:15;61.72;;;33.15;;
22268;SDS011;11303;50.772;19.670;2023-04-16T02:47:17;72.13;;;40.45;;
22268;SDS011;11303;50.772;19.670;2023-04-16T02:49:18;60.05;;;35.10;;
22268;SDS011;11303;50.772;19.670;2023-04-16T02:51:19;75.78;;;41.55;;
22268;SDS011;11303;50.772;19.670;2023-04-16T02:53:21;53.28;;;27.23;;
22268;SDS011;11303;50.772;19.670;2023-04-16T02:55:22;56.22;;;33.30;;
22268;SDS011;11303;50.772;19.670;2023-04-16T02:57:24;61.00;;;35.47;;
22268;SDS011;11303;50.772;19.670;2023-04-16T02:59:25;67.43;;;38.30;;
22268;SDS011;11303;50.772;19.670;2023-04-16T03:01:27;62.80;;;36.20;;
22268;SDS011;11303;50.772;19.670;2023-04-16T03:03:29;71.30;;;36.65;;
22268;SDS011;11303;50.772;19.670;2023-04-16T03:05:30;64.65;;;36.08;;
22268;SDS011;11303;50.772;19.670;2023-04-16T03:07:32;59.47;;;30.52;;
22268;SDS011;11303;50.772;19.670;2023-04-16T03:09:33;49.10;;;25.55;;
22268;SDS011;11303;50.772;19.670;2023-04-16T03:11:35;42.60;;;24.27;;
22268;SDS011;11303;50.772;19.670;2023-04-16T03:13:37;49.20;;;26.35;;
22268;SDS011;11303;50.772;19.670;2023-04-16T03:15:38;47.10;;;25.92;;
22268;SDS011;11303;50.772;19.670;2023-04-16T03:17:40;76.07;;;28.13;;
22268;SDS011;11303;50.772;19.670;2023-04-16T03:19:41;59.67;;;29.52;;
22268;SDS011;11303;50.772;19.670;2023-04-16T03:21:43;60.95;;;29.35;;
22268;SDS011;11303;50.772;19.670;2023-04-16T03:23:44;68.13;;;30.23;;
22268;SDS011;11303;50.772;19.670;2023-04-16T03:25:46;75.20;;;34.65;;
22268;SDS011;11303;50.772;19.670;2023-04-16T03:27:48;74.00;;;32.50;;
22268;SDS011;11303;50.772;19.670;2023-04-16T03:29:49;75.40;;;35.10;;
22268;SDS011;11303;50.772;19.670;2023-04-16T03:31:51;64.47;;;33.20;;
22268;SDS011;11303;50.772;19.670;2023-04-16T03:33:52;71.45;;;37.13;;
22268;SDS011;11303;50.772;19.670;2023-04-16T03:35:54;73.57;;;35.35;;
22268;SDS011;11303;50.772;19.670;2023-04-16T03:37:56;74.85;;;40.90;;
22268;SDS011;11303;50.772;19.670;2023-04-16T03:39:57;74.05;;;39.03;;
22268;SDS011;11303;50.772;19.670;2023-04-16T03:41:59;73.57;;;39.40;;
22268;SDS011;11303;50.772;19.670;2023-04-16T03:44:00;86.22;;;46.22;;
22268;SDS011;11303;50.772;19.670;2023-04-16T03:46:02;82.45;;;34.65;;
22268;SDS011;11303;50.772;19.670;2023-04-16T03:48:03;88.20;;;35.97;;
22268;SDS011;11303;50.772;19.670;2023-04-16T03:50:05;95.18;;;49.10;;
22268;SDS011;11303;50.772;19.670;2023-04-16T03:52:06;93.25;;;42.78;;
22268;SDS011;11303;50.772;19.670;2023-04-16T03:54:08;82.50;;;36.65;;
22268;SDS011;11303;50.772;19.670;2023-04-16T03:56:09;152.45;;;63.25;;
22268;SDS011;11303;50.772;19.670;2023-04-16T03:58:11;135.00;;;51.88;;
22268;SDS011;11303;50.772;19.670;2023-04-16T04:00:12;136.38;;;52.35;;
22268;SDS011;11303;50.772;19.670;2023-04-16T04:02:14;164.65;;;50.35;;
22268;SDS011;11303;50.772;19.670;2023-04-16T04:04:16;138.93;;;46.60;;
22268;SDS011;11303;50.772;19.670;2023-04-16T04:06:17;132.02;;;45.08;;
22268;SDS011;11303;50.772;19.670;2023-04-16T04:08:19;144.23;;;42.05;;
22268;SDS011;11303;50.772;19.670;2023-04-16T04:10:20;265.48;;;40.70;;
22268;SDS011;11303;50.772;19.670;2023-04-16T04:12:22;336.48;;;47.55;;
22268;SDS011;11303;50.772;19.670;2023-04-16T04:14:23;258.30;;;43.78;;
22268;SDS011;11303;50.772;19.670;2023-04-16T04:16:25;324.05;;;49.45;;
22268;SDS011;11303;50.772;19.670;2023-04-16T04:18:26;259.40;;;46.90;;
22268;SDS011;11303;50.772;19.670;2023-04-16T04:20:28;294.45;;;53.20;;
22268;SDS011;11303;50.772;19.670;2023-04-16T04:22:29;267.02;;;47.13;;
22268;SDS011;11303;50.772;19.670;2023-04-16T04:24:31;274.73;;;55.38;;
22268;SDS011;11303;50.772;19.670;2023-04-16T04:26:32;359.70;;;65.82;;
22268;SDS011;11303;50.772;19.670;2023-04-16T04:28:34;247.55;;;56.15;;
22268;SDS011;11303;50.772;19.670;2023-04-16T04:30:36;231.80;;;45.72;;
22268;SDS011;11303;50.772;19.670;2023-04-16T04:32:37;215.00;;;47.05;;
22268;SDS011;11303;50.772;19.670;2023-04-16T04:34:39;244.32;;;48.47;;
22268;SDS011;11303;50.772;19.670;2023-04-16T04:36:40;223.38;;;46.85;;
22268;SDS011;11303;50.772;19.670;2023-04-16T04:38:42;158.77;;;44.53;;
22268;SDS011;11303;50.772;19.670;2023-04-16T04:40:43;183.45;;;47.45;;
22268;SDS011;11303;50.772;19.670;2023-04-16T04:42:44;221.60;;;68.43;;
22268;SDS011;11303;50.772;19.670;2023-04-16T04:44:46;198.60;;;54.85;;
22268;SDS011;11303;50.772;19.670;2023-04-16T04:46:48;172.57;;;54.35;;
22268;SDS011;11303;50.772;19.670;2023-04-16T04:48:49;186.88;;;53.40;;
22268;SDS011;11303;50.772;19.670;2023-04-16T04:50:51;155.15;;;48.72;;
22268;SDS011;11303;50.772;19.670;2023-04-16T04:52:52;149.55;;;46.38;;
22268;SDS011;11303;50.772;19.670;2023-04-16T04:54:54;148.93;;;47.80;;
22268;SDS011;11303;50.772;19.670;2023-04-16T04:56:56;151.10;;;51.70;;
22268;SDS011;11303;50.772;19.670;2023-04-16T04:58:57;152.90;;;51.63;;
22268;SDS011;11303;50.772;19.670;2023-04-16T05:00:59;168.32;;;45.83;;
22268;SDS011;11303;50.772;19.670;2023-04-16T05:03:01;169.68;;;45.33;;
22268;SDS011;11303;50.772;19.670;2023-04-16T05:05:03;203.40;;;45.25;;
22268;SDS011;11303;50.772;19.670;2023-04-16T05:07:05;197.05;;;44.75;;
22268;SDS011;11303;50.772;19.670;2023-04-16T05:09:07;150.75;;;41.88;;
22268;SDS011;11303;50.772;19.670;2023-04-16T05:11:12;157.15;;;43.72;;
22268;SDS011;11303;50.772;19.670;2023-04-16T05:13:13;161.07;;;43.03;;
22268;SDS011;11303;50.772;19.670;2023-04-16T05:15:15;212.90;;;49.58;;
22268;SDS011;11303;50.772;19.670;2023-04-16T05:17:16;213.88;;;48.30;;
22268;SDS011;11303;50.772;19.670;2023-04-16T05:19:18;202.25;;;62.08;;
22268;SDS011;11303;50.772;19.670;2023-04-16T05:21:19;182.20;;;56.17;;
22268;SDS011;11303;50.772;19.670;2023-04-16T05:23:21;183.25;;;49.15;;
22268;SDS011;11303;50.772;19.670;2023-04-16T05:25:22;187.20;;;43.35;;
22268;SDS011;11303;50.772;19.670;2023-04-16T05:27:24;150.77;;;41.00;;
22268;SDS011;11303;50.772;19.670;2023-04-16T05:29:25;152.18;;;42.38;;
22268;SDS011;11303;50.772;19.670;2023-04-16T05:31:27;149.20;;;39.70;;
22268;SDS011;11303;50.772;19.670;2023-04-16T05:33:28;147.25;;;38.28;;
22268;SDS011;11303;50.772;19.670;2023-04-16T05:35:29;128.55;;;39.00;;
22268;SDS011;11303;50.772;19.670;2023-04-16T05:37:31;124.97;;;40.95;;
22268;SDS011;11303;50.772;19.670;2023-04-16T05:39:32;136.50;;;44.63;;
22268;SDS011;11303;50.772;19.670;2023-04-16T05:41:34;121.32;;;41.47;;
22268;SDS011;11303;50.772;19.670;2023-04-16T05:43:35;107.65;;;36.58;;
22268;SDS011;11303;50.772;19.670;2023-04-16T05:45:37;106.35;;;40.00;;
22268;SDS011;11303;50.772;19.670;2023-04-16T05:47:41;106.55;;;38.58;;
22268;SDS011;11303;50.772;19.670;2023-04-16T05:49:43;103.40;;;37.33;;
22268;SDS011;11303;50.772;19.670;2023-04-16T05:51:44;97.78;;;35.75;;
22268;SDS011;11303;50.772;19.670;2023-04-16T05:53:46;88.13;;;35.33;;
22268;SDS011;11303;50.772;19.670;2023-04-16T05:55:47;97.60;;;36.75;;
22268;SDS011;11303;50.772;19.670;2023-04-16T05:57:49;82.93;;;34.60;;
22268;SDS011;11303;50.772;19.670;2023-04-16T05:59:50;80.97;;;33.42;;
22268;SDS011;11303;50.772;19.670;2023-04-16T06:01:52;73.20;;;31.50;;
22268;SDS011;11303;50.772;19.670;2023-04-16T06:03:53;68.22;;;29.38;;
22268;SDS011;11303;50.772;19.670;2023-04-16T06:05:55;56.88;;;25.77;;
22268;SDS011;11303;50.772;19.670;2023-04-16T06:07:56;54.83;;;25.67;;
22268;SDS011;11303;50.772;19.670;2023-04-16T06:09:58;56.20;;;27.35;;
22268;SDS011;11303;50.772;19.670;2023-04-16T06:11:59;60.58;;;28.00;;
22268;SDS011;11303;50.772;19.670;2023-04-16T06:14:01;60.88;;;27.52;;
22268;SDS011;11303;50.772;19.670;2023-04-16T06:16:02;68.03;;;31.55;;
22268;SDS011;11303;50.772;19.670;2023-04-16T06:18:04;68.38;;;31.50;;
22268;SDS011;11303;50.772;19.670;2023-04-16T06:20:06;59.60;;;29.25;;
22268;SDS011;11303;50.772;19.670;2023-04-16T06:22:07;65.63;;;30.63;;
22268;SDS011;11303;50.772;19.670;2023-04-16T06:24:09;67.28;;;29.30;;
22268;SDS011;11303;50.772;19.670;2023-04-16T06:26:10;61.30;;;31.25;;
22268;SDS011;11303;50.772;19.670;2023-04-16T06:28:12;67.65;;;32.50;;
22268;SDS011;11303;50.772;19.670;2023-04-16T06:30:14;70.10;;;32.30;;
22268;SDS011;11303;50.772;19.670;2023-04-16T06:32:16;66.93;;;32.60;;
22268;SDS011;11303;50.772;19.670;2023-04-16T06:34:17;61.33;;;32.03;;
22268;SDS011;11303;50.772;19.670;2023-04-16T06:36:19;63.45;;;33.30;;
22268;SDS011;11303;50.772;19.670;2023-04-16T06:38:20;62.67;;;34.05;;
22268;SDS011;11303;50.772;19.670;2023-04-16T06:40:22;69.53;;;36.05;;
22268;SDS011;11303;50.772;19.670;2023-04-16T06:42:23;68.40;;;37.55;;
22268;SDS011;11303;50.772;19.670;2023-04-16T06:44:25;66.97;;;35.92;;
22268;SDS011;11303;50.772;19.670;2023-04-16T06:46:26;54.95;;;29.58;;
22268;SDS011;11303;50.772;19.670;2023-04-16T06:48:28;61.15;;;31.83;;
22268;SDS011;11303;50.772;19.670;2023-04-16T06:50:30;60.25;;;31.50;;
22268;SDS011;11303;50.772;19.670;2023-04-16T06:52:31;57.72;;;29.65;;
22268;SDS011;11303;50.772;19.670;2023-04-16T06:54:33;56.35;;;30.73;;
22268;SDS011;11303;50.772;19.670;2023-04-16T06:56:34;59.78;;;31.55;;
22268;SDS011;11303;50.772;19.670;2023-04-16T06:58:37;53.20;;;31.85;;
22268;SDS011;11303;50.772;19.670;2023-04-16T07:00:38;68.40;;;36.33;;
22268;SDS011;11303;50.772;19.670;2023-04-16T07:02:40;60.55;;;34.25;;
22268;SDS011;11303;50.772;19.670;2023-04-16T07:04:42;67.35;;;35.90;;
22268;SDS011;11303;50.772;19.670;2023-04-16T07:06:43;65.57;;;36.63;;
22268;SDS011;11303;50.772;19.670;2023-04-16T07:08:45;66.45;;;34.92;;
22268;SDS011;11303;50.772;19.670;2023-04-16T07:10:46;64.60;;;37.47;;
22268;SDS011;11303;50.772;19.670;2023-04-16T07:12:47;62.22;;;35.85;;
22268;SDS011;11303;50.772;19.670;2023-04-16T07:14:49;57.60;;;35.25;;
22268;SDS011;11303;50.772;19.670;2023-04-16T07:16:50;58.60;;;33.65;;
22268;SDS011;11303;50.772;19.670;2023-04-16T07:18:52;48.95;;;27.52;;
22268;SDS011;11303;50.772;19.670;2023-04-16T07:20:53;48.67;;;28.27;;
22268;SDS011;11303;50.772;19.670;2023-04-16T07:22:55;48.15;;;26.58;;
22268;SDS011;11303;50.772;19.670;2023-04-16T07:24:56;72.65;;;47.08;;
22268;SDS011;11303;50.772;19.670;2023-04-16T07:26:58;48.15;;;28.23;;
22268;SDS011;11303;50.772;19.670;2023-04-16T07:28:59;44.60;;;26.92;;
22268;SDS011;11303;50.772;19.670;2023-04-16T07:31:01;48.40;;;27.33;;
22268;SDS011;11303;50.772;19.670;2023-04-16T07:33:03;45.40;;;27.15;;
22268;SDS011;11303;50.772;19.670;2023-04-16T07:35:04;45.38;;;26.52;;
22268;SDS011;11303;50.772;19.670;2023-04-16T07:37:06;46.13;;;28.50;;
22268;SDS011;11303;50.772;19.670;2023-04-16T07:39:07;46.78;;;29.92;;
22268;SDS011;11303;50.772;19.670;2023-04-16T07:41:11;50.55;;;29.10;;
22268;SDS011;11303;50.772;19.670;2023-04-16T07:43:13;55.03;;;32.83;;
22268;SDS011;11303;50.772;19.670;2023-04-16T07:45:16;43.83;;;27.52;;
22268;SDS011;11303;50.772;19.670;2023-04-16T07:47:17;40.15;;;23.85;;
22268;SDS011;11303;50.772;19.670;2023-04-16T07:49:19;43.33;;;24.45;;
22268;SDS011;11303;50.772;19.670;2023-04-16T07:51:20;36.08;;;22.63;;
22268;SDS011;11303;50.772;19.670;2023-04-16T07:53:22;39.00;;;24.83;;
22268;SDS011;11303;50.772;19.670;2023-04-16T07:55:23;38.15;;;22.83;;
22268;SDS011;11303;50.772;19.670;2023-04-16T07:57:25;38.85;;;23.35;;
22268;SDS011;11303;50.772;19.670;2023-04-16T07:59:26;32.78;;;21.98;;
22268;SDS011;11303;50.772;19.670;2023-04-16T08:01:28;45.22;;;25.02;;
22268;SDS011;11303;50.772;19.670;2023-04-16T08:03:29;39.58;;;23.48;;
22268;SDS011;11303;50.772;19.670;2023-04-16T08:05:31;36.75;;;22.02;;
22268;SDS011;11303;50.772;19.670;2023-04-16T08:07:33;32.63;;;20.65;;
22268;SDS011;11303;50.772;19.670;2023-04-16T08:09:35;32.47;;;21.15;;
22268;SDS011;11303;50.772;19.670;2023-04-16T08:11:36;28.77;;;18.73;;
22268;SDS011;11303;50.772;19.670;2023-04-16T08:13:38;28.73;;;19.38;;
22268;SDS011;11303;50.772;19.670;2023-04-16T08:15:39;37.90;;;22.38;;
22268;SDS011;11303;50.772;19.670;2023-04-16T08:17:41;67.35;;;29.25;;
22268;SDS011;11303;50.772;19.670;2023-04-16T08:19:43;108.68;;;38.47;;
22268;SDS011;11303;50.772;19.670;2023-04-16T08:21:47;28.02;;;19.23;;
22268;SDS011;11303;50.772;19.670;2023-04-16T08:23:48;27.38;;;18.20;;
22268;SDS011;11303;50.772;19.670;2023-04-16T08:25:50;36.30;;;21.38;;
22268;SDS011;11303;50.772;19.670;2023-04-16T08:27:53;28.05;;;17.67;;
22268;SDS011;11303;50.772;19.670;2023-04-16T08:29:54;24.65;;;17.38;;
22268;SDS011;11303;50.772;19.670;2023-04-16T08:31:56;36.10;;;22.90;;
22268;SDS011;11303;50.772;19.670;2023-04-16T08:33:58;26.15;;;18.58;;
22268;SDS011;11303;50.772;19.670;2023-04-16T08:36:00;25.00;;;16.75;;
22268;SDS011;11303;50.772;19.670;2023-04-16T08:38:02;23.80;;;16.90;;
22268;SDS011;11303;50.772;19.670;2023-04-16T08:40:05;24.05;;;15.00;;
22268;SDS011;11303;50.772;19.670;2023-04-16T08:42:10;27.33;;;16.50;;
22268;SDS011;11303;50.772;19.670;2023-04-16T08:44:15;26.63;;;17.67;;
22268;SDS011;11303;50.772;19.670;2023-04-16T08:46:18;25.80;;;17.02;;
22268;SDS011;11303;50.772;19.670;2023-04-16T08:48:22;53.28;;;24.23;;
22268;SDS011;11303;50.772;19.670;2023-04-16T08:50:24;30.17;;;19.08;;
22268;SDS011;11303;50.772;19.670;2023-04-16T08:52:26;27.85;;;17.77;;
22268;SDS011;11303;50.772;19.670;2023-04-16T08:54:37;24.05;;;16.45;;
22268;SDS011;11303;50.772;19.670;2023-04-16T08:56:40;21.98;;;15.90;;
22268;SDS011;11303;50.772;19.670;2023-04-16T08:58:43;23.42;;;16.35;;
22268;SDS011;11303;50.772;19.670;2023-04-16T09:00:46;23.98;;;15.98;;
22268;SDS011;11303;50.772;19.670;2023-04-16T09:02:48;30.13;;;17.60;;
22268;SDS011;11303;50.772;19.670;2023-04-16T09:04:50;22.77;;;15.00;;
22268;SDS011;11303;50.772;19.670;2023-04-16T09:06:54;21.05;;;13.70;;
22268;SDS011;11303;50.772;19.670;2023-04-16T09:08:56;20.98;;;13.75;;
22268;SDS011;11303;50.772;19.670;2023-04-16T09:10:59;36.72;;;19.83;;
22268;SDS011;11303;50.772;19.670;2023-04-16T09:13:01;22.25;;;16.08;;
22268;SDS011;11303;50.772;19.670;2023-04-16T09:15:02;23.08;;;16.20;;
22268;SDS011;11303;50.772;19.670;2023-04-16T09:17:05;24.27;;;18.08;;
22268;SDS011;11303;50.772;19.670;2023-04-16T09:19:07;26.33;;;18.65;;
22268;SDS011;11303;50.772;19.670;2023-04-16T09:21:09;23.60;;;17.27;;
22268;SDS011;11303;50.772;19.670;2023-04-16T09:23:11;19.05;;;13.68;;
22268;SDS011;11303;50.772;19.670;2023-04-16T09:25:16;23.15;;;17.60;;
22268;SDS011;11303;50.772;19.670;2023-04-16T09:27:17;27.40;;;17.85;;
22268;SDS011;11303;50.772;19.670;2023-04-16T09:29:40;28.17;;;19.27;;
22268;SDS011;11303;50.772;19.670;2023-04-16T09:31:46;30.25;;;19.42;;
22268;SDS011;11303;50.772;19.670;2023-04-16T09:34:05;27.27;;;18.80;;
22268;SDS011;11303;50.772;19.670;2023-04-16T09:36:07;25.38;;;18.33;;
22268;SDS011;11303;50.772;19.670;2023-04-16T09:38:08;29.33;;;19.40;;
22268;SDS011;11303;50.772;19.670;2023-04-16T09:40:10;24.60;;;17.45;;
22268;SDS011;11303;50.772;19.670;2023-04-16T09:42:12;26.80;;;18.80;;
22268;SDS011;11303;50.772;19.670;2023-04-16T09:44:14;26.80;;;18.75;;
22268;SDS011;11303;50.772;19.670;2023-04-16T09:46:15;24.95;;;17.45;;
22268;SDS011;11303;50.772;19.670;2023-04-16T09:48:26;21.15;;;16.65;;
22268;SDS011;11303;50.772;19.670;2023-04-16T09:50:28;25.00;;;17.20;;
22268;SDS011;11303;50.772;19.670;2023-04-16T09:52:29;22.38;;;16.67;;
22268;SDS011;11303;50.772;19.670;2023-04-16T09:54:31;23.25;;;16.70;;
22268;SDS011;11303;50.772;19.670;2023-04-16T09:56:33;31.73;;;20.27;;
22268;SDS011;11303;50.772;19.670;2023-04-16T09:58:39;23.75;;;16.50;;
22268;SDS011;11303;50.772;19.670;2023-04-16T10:00:41;23.52;;;17.45;;
22268;SDS011;11303;50.772;19.670;2023-04-16T10:02:43;17.75;;;14.38;;
22268;SDS011;11303;50.772;19.670;2023-04-16T10:07:02;20.67;;;15.15;;
22268;SDS011;11303;50.772;19.670;2023-04-16T10:09:08;27.70;;;16.67;;
22268;SDS011;11303;50.772;19.670;2023-04-16T10:11:11;23.13;;;15.10;;
22268;SDS011;11303;50.772;19.670;2023-04-16T10:13:12;18.63;;;13.23;;
22268;SDS011;11303;50.772;19.670;2023-04-16T10:15:17;19.42;;;14.10;;
22268;SDS011;11303;50.772;19.670;2023-04-16T10:17:19;19.77;;;14.02;;
22268;SDS011;11303;50.772;19.670;2023-04-16T10:19:21;20.80;;;15.30;;
22268;SDS011;11303;50.772;19.670;2023-04-16T10:21:22;19.30;;;13.93;;
22268;SDS011;11303;50.772;19.670;2023-04-16T10:23:24;17.00;;;13.63;;
22268;SDS011;11303;50.772;19.670;2023-04-16T10:25:26;18.60;;;13.70;;
22268;SDS011;11303;50.772;19.670;2023-04-16T10:27:28;15.45;;;12.20;;
22268;SDS011;11303;50.772;19.670;2023-04-16T10:29:30;16.35;;;13.02;;
22268;SDS011;11303;50.772;19.670;2023-04-16T10:31:32;19.85;;;13.75;;
22268;SDS011;11303;50.772;19.670;2023-04-16T10:33:34;18.33;;;13.07;;
22268;SDS011;11303;50.772;19.670;2023-04-16T10:35:39;17.98;;;13.23;;
22268;SDS011;11303;50.772;19.670;2023-04-16T10:37:40;16.20;;;12.68;;
22268;SDS011;11303;50.772;19.670;2023-04-16T10:39:42;16.42;;;12.50;;
22268;SDS011;11303;50.772;19.670;2023-04-16T10:41:44;16.77;;;12.18;;
22268;SDS011;11303;50.772;19.670;2023-04-16T10:43:46;17.60;;;13.35;;
22268;SDS011;11303;50.772;19.670;2023-04-16T10:45:48;15.75;;;11.43;;
22268;SDS011;11303;50.772;19.670;2023-04-16T10:47:49;21.10;;;14.95;;
22268;SDS011;11303;50.772;19.670;2023-04-16T10:49:51;16.65;;;12.63;;
22268;SDS011;11303;50.772;19.670;2023-04-16T10:51:54;17.23;;;13.55;;
22268;SDS011;11303;50.772;19.670;2023-04-16T10:54:18;19.10;;;13.88;;
22268;SDS011;11303;50.772;19.670;2023-04-16T10:56:26;18.98;;;13.50;;
22268;SDS011;11303;50.772;19.670;2023-04-16T10:58:31;14.88;;;11.57;;
22268;SDS011;11303;50.772;19.670;2023-04-16T11:00:47;17.52;;;12.70;;
22268;SDS011;11303;50.772;19.670;2023-04-16T11:02:51;15.98;;;11.68;;
22268;SDS011;11303;50.772;19.670;2023-04-16T11:04:54;17.10;;;12.35;;
22268;SDS011;11303;50.772;19.670;2023-04-16T11:07:08;16.67;;;12.07;;
22268;SDS011;11303;50.772;19.670;2023-04-16T11:11:39;15.98;;;11.65;;
22268;SDS011;11303;50.772;19.670;2023-04-16T11:13:44;16.40;;;10.98;;
22268;SDS011;11303;50.772;19.670;2023-04-16T11:15:48;19.35;;;12.75;;
22268;SDS011;11303;50.772;19.670;2023-04-16T11:17:50;20.90;;;14.32;;
22268;SDS011;11303;50.772;19.670;2023-04-16T11:19:52;21.55;;;15.57;;
22268;SDS011;11303;50.772;19.670;2023-04-16T11:21:53;22.23;;;15.50;;
22268;SDS011;11303;50.772;19.670;2023-04-16T11:23:56;21.33;;;15.82;;
22268;SDS011;11303;50.772;19.670;2023-04-16T11:25:58;19.77;;;14.02;;
22268;SDS011;11303;50.772;19.670;2023-04-16T11:28:03;19.33;;;13.32;;
22268;SDS011;11303;50.772;19.670;2023-04-16T11:30:05;20.58;;;13.40;;
22268;SDS011;11303;50.772;19.670;2023-04-16T11:32:08;18.73;;;14.07;;
22268;SDS011;11303;50.772;19.670;2023-04-16T11:34:09;20.60;;;15.43;;
22268;SDS011;11303;50.772;19.670;2023-04-16T11:36:11;16.40;;;12.63;;
22268;SDS011;11303;50.772;19.670;2023-04-16T11:38:12;18.23;;;12.80;;
22268;SDS011;11303;50.772;19.670;2023-04-16T11:40:14;18.48;;;13.57;;
22268;SDS011;11303;50.772;19.670;2023-04-16T11:42:19;19.40;;;13.15;;
22268;SDS011;11303;50.772;19.670;2023-04-16T11:44:23;17.13;;;12.98;;
22268;SDS011;11303;50.772;19.670;2023-04-16T11:46:43;19.20;;;13.02;;